Time;durP1;ratioP1;P1;durP2;ratioP2;P2;SDS_P1;SDS_P2;PMS_P1;PMS_P2;Temp;Humidity;BMP_temperature;BMP_pressure;BME280_temperature;BME280_humidity;BME280_pressure;Samples;Min_cycle;Max_cycle;Signal;HPM_P1;HPM_P2
2022/06/17 00:01:47;;;;;;;5.40;4.20;;;;;;;;;;7388643;19;20153;-79
2022/06/17 00:04:13;;;;;;;6.28;4.35;;;;;;;;;;7392629;19;20546;-80
2022/06/17 00:06:42;;;;;;;7.63;4.30;;;;;;;;;;7387570;19;20657;-80
2022/06/17 00:09:08;;;;;;;6.22;4.10;;;;;;;;;;7387730;19;20563;-80
2022/06/17 00:11:37;;;;;;;6.07;4.57;;;;;;;;;;7396082;19;20567;-80
2022/06/17 00:14:06;;;;;;;5.85;4.38;;;;;;;;;;7386073;19;20160;-80
2022/06/17 00:16:32;;;;;;;5.75;4.30;;;;;;;;;;7389249;19;20203;-80
2022/06/17 00:18:58;;;;;;;7.25;4.63;;;;;;;;;;7391445;19;20137;-80
2022/06/17 00:21:29;;;;;;;5.05;4.30;;;;;;;;;;7414704;19;20125;-79
2022/06/17 00:23:56;;;;;;;7.55;4.13;;;;;;;;;;7403867;19;20117;-79
2022/06/17 00:26:22;;;;;;;8.32;4.15;;;;;;;;;;7391856;19;20149;-81
2022/06/17 00:28:48;;;;;;;5.85;4.18;;;;;;;;;;7388929;19;20133;-80
2022/06/17 00:31:15;;;;;;;4.88;3.60;;;;;;;;;;7383817;19;20157;-80
2022/06/17 00:33:41;;;;;;;5.80;3.75;;;;;;;;;;7387169;19;20961;-78
2022/06/17 00:36:10;;;;;;;6.82;4.20;;;;;;;;;;7388893;19;20199;-79
2022/06/17 00:38:36;;;;;;;6.85;4.20;;;;;;;;;;7387134;19;20476;-80
2022/06/17 00:41:23;;;;;;;5.63;3.90;;;;;;;;;;7383389;19;20141;-79
2022/06/17 00:43:49;;;;;;;6.45;4.35;;;;;;;;;;7383062;19;20152;-80
2022/06/17 00:46:35;;;;;;;4.68;4.13;;;;;;;;;;7389805;19;20172;-80
2022/06/17 00:49:20;;;;;;;5.80;4.63;;;;;;;;;;7386428;19;20473;-81
2022/06/17 00:51:48;;;;;;;6.32;4.15;;;;;;;;;;7382248;19;20610;-80
2022/06/17 00:54:37;;;;;;;9.90;5.63;;;;;;;;;;7386008;19;20145;-79
2022/06/17 00:57:17;;;;;;;4.40;4.00;;;;;;;;;;7382002;19;20182;-80
2022/06/17 00:59:42;;;;;;;4.93;4.32;;;;;;;;;;7386439;19;20967;-79
2022/06/17 01:02:09;;;;;;;5.75;4.32;;;;;;;;;;7392491;19;20129;-80
2022/06/17 01:04:38;;;;;;;5.93;4.43;;;;;;;;;;7389415;19;20634;-81
2022/06/17 01:07:14;;;;;;;5.00;3.75;;;;;;;;;;7390069;19;20152;-80
2022/06/17 01:10:01;;;;;;;5.45;4.72;;;;;;;;;;7392020;19;20131;-80
2022/06/17 01:12:36;;;;;;;4.65;4.18;;;;;;;;;;7385187;19;20606;-80
2022/06/17 01:15:02;;;;;;;5.70;4.43;;;;;;;;;;7393269;19;20161;-80
2022/06/17 01:17:29;;;;;;;7.70;5.15;;;;;;;;;;7388954;19;20195;-80
2022/06/17 01:19:57;;;;;;;5.90;3.97;;;;;;;;;;7382402;19;20646;-79
2022/06/17 01:22:26;;;;;;;5.30;4.38;;;;;;;;;;7392350;19;20129;-80
2022/06/17 01:25:01;;;;;;;9.15;4.28;;;;;;;;;;7391023;19;20520;-79
2022/06/17 01:27:29;;;;;;;7.82;4.40;;;;;;;;;;7385578;19;20148;-79
2022/06/17 01:29:55;;;;;;;5.90;4.10;;;;;;;;;;7391644;19;20137;-80
2022/06/17 01:32:24;;;;;;;5.47;4.50;;;;;;;;;;7392014;19;20192;-84
2022/06/17 01:34:50;;;;;;;8.15;4.72;;;;;;;;;;7421540;19;20128;-83
2022/06/17 13:33:23;;;;;;;7.68;4.18;;;;;;;;;;7387250;19;20195;-83
2022/06/17 13:35:54;;;;;;;6.30;4.38;;;;;;;;;;7386827;19;20175;-83
2022/06/17 13:38:28;;;;;;;4.25;3.92;;;;;;;;;;7379333;19;20140;-83
2022/06/17 13:41:19;;;;;;;5.13;3.85;;;;;;;;;;7383515;19;20172;-83
2022/06/17 13:43:45;;;;;;;4.15;3.85;;;;;;;;;;7375937;19;20178;-83
2022/06/17 13:46:17;;;;;;;4.32;3.72;;;;;;;;;;7382720;19;20180;-83
2022/06/17 13:49:00;;;;;;;4.78;4.38;;;;;;;;;;7386447;19;20141;-82
2022/06/17 13:51:33;;;;;;;4.22;3.92;;;;;;;;;;7390220;19;20171;-82
2022/06/17 13:54:17;;;;;;;4.70;3.92;;;;;;;;;;7390929;19;20167;-83
2022/06/17 13:56:52;;;;;;;4.50;4.05;;;;;;;;;;7382608;19;20243;-83
2022/06/17 13:59:31;;;;;;;4.40;4.10;;;;;;;;;;7381371;19;20162;-83
2022/06/17 14:02:08;;;;;;;3.65;3.35;;;;;;;;;;7392031;19;20135;-83
2022/06/17 14:04:54;;;;;;;3.92;3.63;;;;;;;;;;7388021;19;20167;-82
2022/06/17 14:07:20;;;;;;;4.50;4.10;;;;;;;;;;7380710;19;20152;-83
2022/06/17 14:09:46;;;;;;;4.10;3.80;;;;;;;;;;7389182;19;20584;-83
2022/06/17 14:12:31;;;;;;;4.95;3.60;;;;;;;;;;7387084;19;20159;-83
2022/06/17 14:15:05;;;;;;;5.28;3.90;;;;;;;;;;7381684;19;20673;-83
2022/06/17 14:17:31;;;;;;;4.15;3.80;;;;;;;;;;7387583;19;20217;-83
2022/06/17 14:20:15;;;;;;;4.75;4.03;;;;;;;;;;7385447;19;20148;-83
2022/06/17 14:22:59;;;;;;;7.75;4.32;;;;;;;;;;7383989;19;20143;-82
2022/06/17 14:25:31;;;;;;;4.65;4.22;;;;;;;;;;7390821;19;20116;-83
2022/06/17 14:27:59;;;;;;;4.43;4.10;;;;;;;;;;7389397;19;20158;-83
2022/06/17 14:30:40;;;;;;;4.13;3.80;;;;;;;;;;7379130;19;20144;-82
2022/06/17 14:33:15;;;;;;;4.30;3.90;;;;;;;;;;7384290;19;20180;-83
2022/06/17 14:35:50;;;;;;;4.00;3.70;;;;;;;;;;7385167;19;20139;-83
2022/06/17 14:38:19;;;;;;;4.68;3.90;;;;;;;;;;7377415;19;21014;-83
2022/06/17 14:44:03;;;;;;;4.25;3.90;;;;;;;;;;7391820;19;20157;-83
2022/06/17 14:46:49;;;;;;;3.90;3.60;;;;;;;;;;7387420;19;20550;-83
2022/06/17 14:49:45;;;;;;;4.07;3.67;;;;;;;;;;7383635;19;20150;-83
2022/06/17 14:52:30;;;;;;;4.85;3.80;;;;;;;;;;7382310;19;20419;-83
2022/06/17 14:55:06;;;;;;;4.32;3.60;;;;;;;;;;7385413;19;20143;-83
2022/06/17 14:57:33;;;;;;;5.43;4.05;;;;;;;;;;7371172;19;20630;-83
2022/06/17 15:00:16;;;;;;;3.88;3.58;;;;;;;;;;7371628;19;20148;-82
2022/06/17 15:02:43;;;;;;;4.97;3.83;;;;;;;;;;7382228;19;20248;-82
2022/06/17 15:05:32;;;;;;;4.00;3.70;;;;;;;;;;7384358;19;20132;-83
2022/06/17 15:08:15;;;;;;;5.47;3.75;;;;;;;;;;7380056;19;20594;-83
2022/06/17 15:10:42;;;;;;;4.53;3.70;;;;;;;;;;7379219;19;20160;-83
2022/06/17 15:13:11;;;;;;;4.03;3.63;;;;;;;;;;7382921;19;20158;-83
2022/06/17 15:15:39;;;;;;;4.10;3.80;;;;;;;;;;7377656;19;20913;-82
2022/06/17 15:18:11;;;;;;;4.07;3.75;;;;;;;;;;7394641;19;20156;-83
2022/06/17 15:20:39;;;;;;;5.32;3.30;;;;;;;;;;7395232;19;20128;-83
2022/06/17 15:23:13;;;;;;;4.80;3.60;;;;;;;;;;7404838;19;20185;-83
2022/06/17 15:25:49;;;;;;;3.85;3.55;;;;;;;;;;7381819;19;20152;-83
2022/06/17 15:28:27;;;;;;;3.50;3.30;;;;;;;;;;7390523;19;20152;-83
2022/06/17 15:30:53;;;;;;;3.70;3.40;;;;;;;;;;7390761;19;20155;-83
2022/06/17 15:33:21;;;;;;;3.78;3.40;;;;;;;;;;7387688;19;20123;-82
2022/06/17 15:35:53;;;;;;;3.92;3.45;;;;;;;;;;7388716;19;20183;-82
2022/06/17 15:38:33;;;;;;;3.60;3.40;;;;;;;;;;7387338;19;20144;-83
2022/06/17 15:41:18;;;;;;;4.03;3.72;;;;;;;;;;7391760;19;20132;-83
2022/06/17 15:43:55;;;;;;;7.30;3.53;;;;;;;;;;7395023;19;20124;-83
2022/06/17 15:46:26;;;;;;;3.95;3.53;;;;;;;;;;7388370;19;20159;-83
2022/06/17 15:48:57;;;;;;;3.45;3.20;;;;;;;;;;7398269;19;20156;-83
2022/06/17 15:51:23;;;;;;;3.30;3.00;;;;;;;;;;7392204;19;20180;-83
2022/06/17 15:53:50;;;;;;;3.53;3.17;;;;;;;;;;7389305;19;20152;-83
2022/06/17 15:56:18;;;;;;;3.75;3.33;;;;;;;;;;7396470;19;20164;-83
2022/06/17 15:58:46;;;;;;;3.13;2.83;;;;;;;;;;7396557;19;20173;-83
2022/06/17 16:01:21;;;;;;;3.97;3.10;;;;;;;;;;7413049;19;20145;-83
2022/06/17 16:03:52;;;;;;;3.67;2.95;;;;;;;;;;7427348;19;20148;-83
2022/06/17 16:06:25;;;;;;;4.32;3.90;;;;;;;;;;7416953;19;20514;-83
2022/06/17 16:08:52;;;;;;;3.92;2.83;;;;;;;;;;7398358;19;20166;-83
2022/06/17 16:11:18;;;;;;;3.78;3.10;;;;;;;;;;7398096;19;20132;-83
2022/06/17 16:13:49;;;;;;;8.32;3.10;;;;;;;;;;7399252;19;20176;-83
2022/06/17 16:16:15;;;;;;;3.28;2.95;;;;;;;;;;7396697;19;20177;-83
2022/06/17 16:18:42;;;;;;;3.63;2.72;;;;;;;;;;7385703;19;20176;-83
2022/06/17 16:21:27;;;;;;;4.57;2.95;;;;;;;;;;7391047;19;20286;-83
2022/06/17 16:23:53;;;;;;;6.22;3.00;;;;;;;;;;7393884;19;20618;-83
2022/06/17 16:26:21;;;;;;;4.43;2.63;;;;;;;;;;7388166;19;20148;-83
2022/06/17 16:28:47;;;;;;;3.65;2.40;;;;;;;;;;7413434;19;20136;-83
2022/06/17 16:31:31;;;;;;;3.13;2.60;;;;;;;;;;7419098;19;20169;-83
2022/06/17 16:34:02;;;;;;;3.53;2.60;;;;;;;;;;7408504;19;20156;-83
2022/06/17 16:36:30;;;;;;;2.78;2.50;;;;;;;;;;7392850;19;20180;-82
2022/06/17 16:38:57;;;;;;;2.72;2.30;;;;;;;;;;7385180;19;20148;-83
2022/06/17 16:44:14;;;;;;;2.70;2.50;;;;;;;;;;7393225;19;20460;-83
2022/06/17 16:46:55;;;;;;;2.42;2.25;;;;;;;;;;7390907;19;20164;-83
2022/06/17 16:49:22;;;;;;;4.22;2.38;;;;;;;;;;7387158;19;20152;-83
2022/06/17 16:51:48;;;;;;;2.65;2.30;;;;;;;;;;7391155;19;20128;-83
2022/06/17 16:54:16;;;;;;;3.35;2.38;;;;;;;;;;7393593;19;20159;-83
2022/06/17 16:56:46;;;;;;;4.55;2.42;;;;;;;;;;7393739;19;20259;-83
2022/06/17 16:59:13;;;;;;;5.45;2.25;;;;;;;;;;7392588;19;20152;-83
2022/06/17 17:01:39;;;;;;;2.80;2.22;;;;;;;;;;7396211;19;20165;-83
2022/06/17 17:04:05;;;;;;;2.85;2.22;;;;;;;;;;7397333;19;20568;-83
2022/06/17 17:06:31;;;;;;;2.47;2.28;;;;;;;;;;7397041;19;20152;-83
2022/06/17 17:08:58;;;;;;;3.20;2.00;;;;;;;;;;7399075;19;20156;-83
2022/06/17 17:11:24;;;;;;;3.05;2.17;;;;;;;;;;7396364;19;20129;-82
2022/06/17 17:13:51;;;;;;;3.42;2.03;;;;;;;;;;7395048;19;20148;-83
2022/06/17 17:16:17;;;;;;;2.97;2.22;;;;;;;;;;7393331;19;20646;-83
2022/06/17 17:18:44;;;;;;;3.55;2.08;;;;;;;;;;7392147;19;20160;-82
2022/06/17 17:21:14;;;;;;;3.70;2.40;;;;;;;;;;7391734;19;20677;-83
2022/06/17 17:23:41;;;;;;;5.40;2.63;;;;;;;;;;7391527;19;20152;-82
2022/06/17 17:26:08;;;;;;;3.40;2.35;;;;;;;;;;7388800;19;20622;-83
2022/06/17 17:28:36;;;;;;;2.97;2.33;;;;;;;;;;7391952;19;20241;-83
2022/06/17 17:31:02;;;;;;;3.13;2.25;;;;;;;;;;7392198;19;20144;-83
2022/06/17 17:33:28;;;;;;;2.55;2.28;;;;;;;;;;7394983;19;20552;-83
2022/06/17 17:35:54;;;;;;;2.58;2.38;;;;;;;;;;7393818;19;20455;-83
2022/06/17 17:38:21;;;;;;;3.90;2.38;;;;;;;;;;7392451;19;20621;-82
2022/06/17 17:40:48;;;;;;;3.15;2.20;;;;;;;;;;7395152;19;20160;-82
2022/06/17 17:43:15;;;;;;;2.33;2.13;;;;;;;;;;7393971;19;20174;-82
2022/06/17 17:45:42;;;;;;;2.60;2.40;;;;;;;;;;7390199;19;20661;-81
2022/06/17 17:48:10;;;;;;;4.28;2.58;;;;;;;;;;7396895;19;20159;-81
2022/06/17 17:50:35;;;;;;;2.50;2.08;;;;;;;;;;7397561;19;20153;-81
2022/06/17 17:53:02;;;;;;;3.92;2.08;;;;;;;;;;7389175;19;20156;-81
2022/06/17 17:55:29;;;;;;;3.25;2.30;;;;;;;;;;7390015;19;20145;-82
2022/06/17 17:57:55;;;;;;;2.10;2.00;;;;;;;;;;7392340;19;20180;-82
2022/06/17 18:00:24;;;;;;;3.50;2.22;;;;;;;;;;7387455;19;23615;-82
2022/06/17 18:02:50;;;;;;;3.35;2.13;;;;;;;;;;7380904;19;20153;-82
2022/06/17 18:05:16;;;;;;;4.03;2.10;;;;;;;;;;7375401;19;20145;-82
2022/06/17 18:07:42;;;;;;;4.38;2.20;;;;;;;;;;7388120;19;20172;-82
2022/06/17 18:10:10;;;;;;;5.22;2.40;;;;;;;;;;7386073;19;20153;-82
2022/06/17 18:12:36;;;;;;;9.35;2.47;;;;;;;;;;7386379;19;20164;-82
2022/06/17 18:15:03;;;;;;;5.03;2.40;;;;;;;;;;7390275;19;20216;-82
2022/06/17 18:17:29;;;;;;;6.82;2.50;;;;;;;;;;7386679;19;20197;-82
2022/06/17 18:19:56;;;;;;;3.50;2.75;;;;;;;;;;7385823;19;20191;-82
